Latest Coastal Weather Observations for Gladstone

IDQ60701

Issued at 2:55 pm EST Thursday 23 October 2014 (issued every 10 minutes, with the page automatically refreshed every 10 minutes)

About coastal observations | Map of coastal stations | Coastal observations for QLD | Marine services | Other Formats
Station Details ID: 039123 Name: GLADSTONE RADAR Lat: -23.86 Lon: 151.26 Height: 74.5 m
Data from the previous 72 hours. | See also: Recent months at Gladstone
Date/Time
EST
Temp

°C
Wind Pressure Rain
since 9am
mm
Weather Cloud Vis
km
Sea
Height
m
Swell
Dir
 
Speed
knots
Gust
knots
hPa Trend Height
m
Period
s
Dir
23/02:30pm 25.9 ENE 12 18 1017.8 - 0.0 - - - - - - -
23/02:00pm 25.8 ENE 12 17 1018.3 - 0.0 - - - - - - -
23/01:30pm 26.3 ENE 13 18 1018.6 - 0.0 - - - - - - -
23/01:00pm 27.3 ENE 11 17 1018.7 - 0.0 - - - - - - -
23/12:30pm 27.2 ENE 12 16 1019.0 - 0.0 - - - - - - -
23/12:00pm 27.2 NE 11 15 1019.2 - 0.0 - - - - - - -
23/11:30am 27.1 ENE 11 15 1019.9 - 0.0 - - - - - - -
23/11:00am 27.2 ENE 11 16 1020.3 - 0.0 - - - - - - -
23/10:30am 27.3 ENE 10 15 1020.7 - 0.0 - - - - - - -
23/10:00am 26.2 E 9 15 1021.1 - 0.0 - - - - - - -
23/09:30am 25.0 SE 7 9 1021.4 - 0.0 - - - - - - -
23/09:00am 24.2 E 10 15 1021.5 - 0.0 - - - - - - -
23/08:30am 23.3 ESE 9 14 1021.7 - 0.0 - - - - - - -
23/08:00am 22.8 ESE 8 13 1021.7 - 0.0 - - - - - - -
23/07:30am 21.9 ESE 9 14 1021.5 - 0.0 - - - - - - -
23/07:00am 20.9 SE 8 12 1021.3 - 0.0 - - - - - - -
23/06:30am 19.1 SSE 6 13 1021.1 - 0.0 - - - - - - -
23/06:00am 17.4 S 7 10 1021.1 - 0.0 - - - - - - -
23/05:30am 17.2 SSE 7 11 1021.0 - 0.0 - - - - - - -
23/05:00am 17.1 S 8 11 1020.7 - 0.0 - - - - - - -
23/04:30am 17.4 SSE 8 13 1020.5 - 0.0 - - - - - - -
23/04:00am 17.4 SSE 9 13 1020.4 - 0.0 - - - - - - -
23/03:30am 17.5 SSE 8 12 1020.2 - 0.0 - - - - - - -
23/03:00am 17.6 SSE 8 11 1020.2 - 0.0 - - - - - - -
23/02:30am 17.6 S 8 10 1020.5 - 0.0 - - - - - - -
23/02:00am 17.9 S 7 10 1020.7 - 0.0 - - - - - - -
23/01:30am 18.0 S 7 11 1020.9 - 0.0 - - - - - - -
23/01:00am 18.0 S 7 9 1021.3 - 0.0 - - - - - - -
23/12:30am 18.5 SSE 8 11 1021.6 - 0.0 - - - - - - -
23/12:00am 18.8 SE 9 12 1021.8 - 0.0 - - - - - - -
 
Date/Time
EST
Temp

°C
Wind Pressure Rain
since 9am
mm
Weather Cloud Vis
km
Sea
Height
m
Swell
Dir
 
Speed
knots
Gust
knots
hPa Trend Height
m
Period
s
Dir
22/11:30pm 19.4 SE 11 14 1022.0 - 0.0 - - - - - - -
22/11:00pm 19.8 ESE 11 15 1022.0 - 0.0 - - - - - - -
22/10:30pm 20.0 ESE 12 17 1022.1 - 0.0 - - - - - - -
22/10:00pm 20.6 E 14 22 1022.0 - 0.0 - - - - - - -
22/09:30pm 20.8 E 15 21 1021.9 - 0.0 - - - - - - -
22/09:12pm 20.9 E 16 26 1021.9 - 0.0 - - - - - - -
22/09:00pm 20.8 E 16 23 1021.7 - 0.0 - - - - - - -
22/08:50pm 21.0 E 17 27 1021.6 - 0.0 - - - - - - -
22/08:30pm 20.8 E 15 23 1021.4 - 0.0 - - - - - - -
22/08:00pm 21.0 E 17 25 1021.2 - 0.0 - - - - - - -
22/07:30pm 21.0 E 15 23 1021.0 - 0.0 - - - - - - -
22/07:00pm 21.2 E 17 23 1020.8 - 0.0 - - - - - - -
22/06:30pm 21.1 E 19 26 1020.4 - 0.0 - - - - - - -
22/06:00pm 21.4 E 18 27 1020.2 - 0.0 - - - - - - -
22/05:30pm 21.8 E 18 26 1019.9 - 0.0 - - - - - - -
22/05:00pm 22.4 E 19 27 1019.6 - 0.0 - - - - - - -
22/04:41pm 22.6 E 19 29 1019.3 - 0.0 - - - - - - -
22/04:30pm 22.9 ENE 18 25 1019.2 - 0.0 - - - - - - -
22/04:12pm 23.9 E 16 26 1019.1 - 0.0 - - - - - - -
22/04:00pm 23.8 ENE 18 23 1019.2 - 0.0 - - - - - - -
22/03:32pm 24.4 E 15 27 1019.0 - 0.0 - - - - - - -
22/03:30pm 25.2 E 15 22 1019.1 - 0.0 - - - - - - -
22/03:29pm 25.1 E 15 25 1019.1 - 0.0 - - - - - - -
22/03:00pm 25.9 E 16 23 1019.1 - 0.0 - - - - - - -
22/02:30pm 27.2 ENE 12 19 1019.4 - 0.0 - - - - - - -
22/02:00pm 26.6 E 15 22 1019.8 - 0.0 - - - - - - -
22/01:30pm 26.0 E 13 21 1020.4 - 0.0 - - - - - - -
22/01:00pm 27.1 E 11 17 1020.6 - 0.0 - - - - - - -
22/12:30pm 25.5 E 13 20 1021.0 - 0.0 - - - - - - -
22/12:00pm 25.0 E 13 19 1021.6 - 0.0 - - - - - - -
22/11:30am 24.1 ESE 12 20 1022.1 - 0.0 - - - - - - -
22/11:00am 25.8 E 13 20 1022.5 - 0.0 - - - - - - -
22/10:30am 22.9 ESE 12 18 1023.0 - 0.0 - - - - - - -
22/10:00am 22.7 ESE 9 14 1023.3 - 0.0 - - - - - - -
22/09:30am 22.9 E 12 17 1023.5 - 0.0 - - - - - - -
22/09:00am 23.7 E 15 22 1023.4 - 0.2 - - - - - - -
22/08:30am 24.1 ESE 13 20 1023.5 - 0.2 - - - - - - -
22/08:00am 22.6 SE 11 19 1023.4 - 0.2 - - - - - - -
22/07:30am 21.2 SE 11 17 1023.3 - 0.2 - - - - - - -
22/07:00am 21.0 SE 9 19 1022.9 - 0.2 - - - - - - -
22/06:30am 19.3 SE 10 17 1022.7 - 0.2 - - - - - - -
22/06:00am 18.6 SE 8 14 1022.4 - 0.2 - - - - - - -
22/05:30am 18.1 SE 9 13 1022.2 - 0.2 - - - - - - -
22/05:00am 18.1 SE 8 14 1021.9 - 0.2 - - - - - - -
22/04:30am 18.2 SSE 8 14 1021.7 - 0.2 - - - - - - -
22/04:00am 18.5 SE 9 14 1021.7 - 0.2 - - - - - - -
22/03:30am 18.8 SE 8 13 1021.9 - 0.2 - - - - - - -
22/03:00am 19.1 SE 9 13 1021.9 - 0.2 - - - - - - -
22/02:30am 19.0 SE 9 13 1022.0 - 0.2 - - - - - - -
22/02:00am 19.0 SE 8 14 1022.3 - 0.2 - - - - - - -
22/01:30am 19.7 SE 8 11 1022.4 - 0.0 - - - - - - -
22/01:00am 19.9 SE 8 12 1022.9 - 0.0 - - - - - - -
22/12:30am 20.6 ESE 10 17 1023.1 - 0.0 - - - - - - -
22/12:00am 21.0 ESE 10 17 1023.4 - 0.0 - - - - - - -
 
Date/Time
EST
Temp

°C
Wind Pressure Rain
since 9am
mm
Weather Cloud Vis
km
Sea
Height
m
Swell
Dir
 
Speed
knots
Gust
knots
hPa Trend Height
m
Period
s
Dir
21/11:30pm 21.3 E 10 16 1023.8 - 0.0 - - - - - - -
21/11:00pm 21.5 E 15 23 1024.0 - 0.0 - - - - - - -
21/10:30pm 21.4 E 13 19 1024.1 - 0.0 - - - - - - -
21/10:00pm 21.6 E 14 21 1024.2 - 0.0 - - - - - - -
21/09:30pm 21.5 E 14 23 1024.3 - 0.0 - - - - - - -
21/09:00pm 21.6 E 15 22 1024.2 - 0.0 - - - - - - -
21/08:30pm 21.3 E 13 21 1024.2 - 0.0 - - - - - - -
21/08:00pm 21.4 E 13 20 1024.0 - 0.0 - - - - - - -
21/07:30pm 21.5 E 13 21 1023.6 - 0.0 - - - - - - -
21/07:02pm 21.6 E 15 25 1023.4 - 0.0 - - - - - - -
21/07:00pm 21.6 E 16 25 1023.3 - 0.0 - - - - - - -
21/06:57pm 21.6 E 15 25 1023.3 - 0.0 - - - - - - -
21/06:30pm 21.5 E 18 24 1022.9 - 0.0 - - - - - - -
21/06:00pm 21.7 E 19 25 1022.5 - 0.0 - - - - - - -
21/05:30pm 22.0 E 22 27 1022.2 - 0.0 - - - - - - -
21/05:00pm 22.6 ENE 20 28 1021.7 - 0.0 - - - - - - -
21/04:30pm 23.4 E 19 29 1021.5 - 0.0 - - - - - - -
21/04:05pm 23.8 E 20 30 1021.5 - 0.0 - - - - - - -
21/04:00pm 23.6 E 22 30 1021.4 - 0.0 - - - - - - -
21/03:30pm 24.2 ENE 20 29 1021.3 - 0.0 - - - - - - -
21/03:13pm 25.2 ENE 19 29 1021.3 - 0.0 - - - - - - -
21/03:00pm 24.9 ENE 21 29 1021.2 - 0.0 - - - - - - -
21/02:30pm 25.4 ENE 20 27 1021.4 - 0.0 - - - - - - -
21/02:00pm 25.7 ENE 20 27 1021.8 - 0.0 - - - - - - -
21/01:30pm 25.8 ENE 20 27 1022.1 - 0.0 - - - - - - -
21/01:00pm 26.4 ENE 18 25 1022.6 - 0.0 - - - - - - -
21/12:30pm 26.9 ENE 16 24 1023.0 - 0.0 - - - - - - -
21/12:00pm 27.4 ENE 17 23 1023.4 - 0.0 - - - - - - -
21/11:30am 27.1 ENE 17 26 1024.0 - 0.0 - - - - - - -
21/11:00am 26.5 E 17 24 1024.3 - 0.0 - - - - - - -
21/10:30am 25.3 E 19 24 1024.5 - 0.0 - - - - - - -
21/10:00am 26.6 E 15 23 1024.8 - 0.0 - - - - - - -
21/09:30am 25.4 E 16 23 1025.0 - 0.0 - - - - - - -
21/09:27am 24.8 E 16 26 1024.9 - 0.0 - - - - - - -
21/09:00am 23.5 E 19 26 1024.9 - 0.0 - - - - - - -
21/08:33am 23.7 E 15 25 1024.6 - 0.0 - - - - - - -
21/08:30am 23.5 E 17 25 1024.6 - 0.0 - - - - - - -
21/08:23am 22.3 ESE 15 25 1024.6 - 0.0 - - - - - - -
21/08:00am 22.4 ESE 14 24 1024.5 - 0.0 - - - - - - -
21/07:30am 21.3 ESE 13 19 1024.3 - 0.0 - - - - - - -
21/07:00am 20.4 SE 10 17 1024.0 - 0.0 - - - - - - -
21/06:30am 20.0 SE 12 17 1023.6 - 0.0 - - - - - - -
21/06:00am 18.9 ESE 10 17 1023.2 - 0.0 - - - - - - -
21/05:30am 17.8 SE 9 13 1023.0 - 0.0 - - - - - - -
21/05:00am 17.9 SE 9 15 1022.6 - 0.0 - - - - - - -
21/04:30am 18.1 SE 10 15 1022.3 - 0.0 - - - - - - -
21/04:00am 18.5 SSE 9 14 1022.3 - 0.0 - - - - - - -
21/03:30am 18.5 SSE 9 14 1022.1 - 0.0 - - - - - - -
21/03:00am 18.3 SE 9 13 1022.1 - 0.0 - - - - - - -
21/02:30am 18.6 SE 8 12 1022.1 - 0.0 - - - - - - -
21/02:00am 18.4 SE 9 13 1022.1 - 0.0 - - - - - - -
21/01:30am 18.7 SE 9 12 1022.4 - 0.0 - - - - - - -
21/01:00am 18.8 SE 10 15 1022.6 - 0.0 - - - - - - -
21/12:30am 18.9 SE 9 14 1023.0 - 0.0 - - - - - - -
21/12:00am 19.1 SE 8 12 1023.4 - 0.0 - - - - - - -
 
Date/Time
EST
Temp

°C
Wind Pressure Rain
since 9am
mm
Weather Cloud Vis
km
Sea
Height
m
Swell
Dir
 
Speed
knots
Gust
knots
hPa Trend Height
m
Period
s
Dir
20/11:30pm 19.4 SE 8 12 1024.0 - 0.0 - - - - - - -
20/11:00pm 19.3 SE 9 12 1024.2 - 0.0 - - - - - - -
20/10:30pm 19.7 SE 8 12 1024.3 - 0.0 - - - - - - -
20/10:00pm 20.5 ESE 9 14 1024.2 - 0.0 - - - - - - -
20/09:30pm 21.0 ENE 13 17 1024.1 - 0.0 - - - - - - -
20/09:00pm 20.9 ENE 12 16 1024.0 - 0.0 - - - - - - -
20/08:30pm 20.7 ENE 13 17 1023.5 - 0.0 - - - - - - -
20/08:00pm 20.7 ENE 12 16 1023.1 - 0.0 - - - - - - -
20/07:30pm 20.7 E 14 20 1022.5 - 0.0 - - - - - - -
20/07:00pm 20.7 E 16 23 1022.0 - 0.0 - - - - - - -
20/06:30pm 20.7 E 17 23 1021.5 - 0.0 - - - - - - -
20/06:00pm 20.8 E 17 22 1021.3 - 0.0 - - - - - - -
20/05:30pm 21.4 ENE 16 21 1020.9 - 0.0 - - - - - - -
20/05:00pm 21.7 ENE 17 23 1020.5 - 0.0 - - - - - - -
20/04:30pm 22.7 ENE 14 18 1020.4 - 0.0 - - - - - - -
20/04:00pm 23.6 ENE 13 19 1020.3 - 0.0 - - - - - - -
20/03:30pm 24.4 ENE 13 19 1020.4 - 0.0 - - - - - - -
20/03:00pm 25.1 ENE 14 21 1020.5 - 0.0 - - - - - - -

Other Formats:

Comma delimited format used in spreadsheet applications
http://www.bom.gov.au/fwo/IDQ60701/IDQ60701.94380.axf

JavaScript Object Notation format (JSON) in row-major order
http://www.bom.gov.au/fwo/IDQ60701/IDQ60701.94380.json